createdAt,value
2022-11-08T00:09:18.112Z,2.03
2022-11-08T00:19:39.571Z,1.58
2022-11-08T00:30:00.985Z,1.83
2022-11-08T00:40:22.392Z,1.40
2022-11-08T00:50:43.910Z,1.98
2022-11-08T01:01:10.763Z,1.63
2022-11-08T01:11:32.534Z,1.98
2022-11-08T01:32:15.256Z,1.73
2022-11-08T01:42:36.842Z,1.90
2022-11-08T02:03:20.879Z,1.70
2022-11-08T02:13:42.520Z,2.33
2022-11-08T02:34:49.158Z,2.22
2022-11-08T02:45:10.856Z,1.60
2022-11-08T03:05:56.787Z,2.08
2022-11-08T03:16:18.203Z,1.80
2022-11-08T03:26:39.615Z,2.13
2022-11-08T03:37:01.040Z,1.90
2022-11-08T03:47:22.499Z,1.67
2022-11-08T03:57:46.449Z,2.00
2022-11-08T04:08:08.124Z,2.03
2022-11-08T04:18:48.118Z,2.45
2022-11-08T04:29:09.930Z,1.75
2022-11-08T04:49:54.209Z,2.07
2022-11-08T05:00:16.630Z,2.33
2022-11-08T05:10:38.047Z,1.90
2022-11-08T05:21:19.798Z,1.87
2022-11-08T05:31:41.793Z,1.80
2022-11-08T05:42:04.808Z,2.05
2022-11-08T05:52:26.262Z,2.00
2022-11-08T06:02:47.760Z,1.90
2022-11-08T06:13:09.274Z,1.70
2022-11-08T06:23:31.485Z,2.03
2022-11-08T06:33:53.005Z,2.13
2022-11-08T06:44:14.411Z,2.00
2022-11-08T06:54:35.836Z,1.70
2022-11-08T07:04:57.271Z,2.00
2022-11-08T07:15:18.738Z,1.57
2022-11-08T07:25:40.244Z,1.70
2022-11-08T07:36:02.180Z,1.70
2022-11-08T07:46:23.598Z,1.70
2022-11-08T07:56:45.084Z,1.83
2022-11-08T08:07:07.147Z,1.30
2022-11-08T08:17:28.615Z,1.55
2022-11-08T08:27:51.916Z,1.33
2022-11-08T08:38:13.819Z,1.75
2022-11-08T08:48:35.876Z,1.27
2022-11-08T09:09:38.812Z,1.50
2022-11-08T09:20:00.434Z,1.30
2022-11-08T09:30:21.924Z,1.17
2022-11-08T09:40:59.371Z,1.40
2022-11-08T09:51:24.379Z,0.90
2022-11-08T10:01:45.907Z,1.73
2022-11-08T10:12:22.576Z,1.05
2022-11-08T10:23:23.012Z,1.23
2022-11-08T10:33:53.013Z,1.30
2022-11-08T10:44:24.314Z,1.38
2022-11-08T10:54:45.698Z,1.33
2022-11-08T11:05:16.310Z,1.20
2022-11-08T11:15:37.723Z,1.07
2022-11-08T11:25:59.216Z,1.30
2022-11-08T11:36:25.005Z,1.02
2022-11-08T11:47:00.027Z,1.23
2022-11-08T11:57:32.843Z,1.05
2022-11-08T12:08:34.309Z,0.95
2022-11-08T12:19:04.914Z,1.20
2022-11-08T12:29:34.194Z,1.23
2022-11-08T12:40:02.467Z,1.10
2022-11-08T12:50:33.284Z,0.80
2022-11-08T13:00:59.214Z,1.00
2022-11-08T13:12:00.216Z,1.27
2022-11-08T13:33:14.882Z,1.00
2022-11-08T13:54:21.703Z,0.95
2022-11-08T14:04:43.846Z,1.00
2022-11-08T14:15:27.510Z,1.27
2022-11-08T14:26:02.450Z,1.10
2022-11-08T14:36:25.924Z,0.80
2022-11-08T14:46:48.908Z,1.00
2022-11-08T14:57:31.219Z,0.90
2022-11-08T15:07:53.313Z,1.13
2022-11-08T15:18:17.366Z,1.17
2022-11-08T15:28:39.186Z,1.30
2022-11-08T15:39:02.321Z,1.00
2022-11-08T15:49:26.696Z,1.30
2022-11-08T15:59:48.483Z,1.10
2022-11-08T16:10:11.093Z,1.10
2022-11-08T16:20:37.034Z,0.90
2022-11-08T16:30:58.892Z,1.25
2022-11-08T16:41:22.052Z,1.08
2022-11-08T16:51:43.854Z,1.33
2022-11-08T17:02:18.509Z,1.30
2022-11-08T17:12:40.375Z,1.30
2022-11-08T17:23:02.570Z,1.30
2022-11-08T17:33:24.342Z,1.58
2022-11-08T17:43:46.138Z,1.48
2022-11-08T17:54:08.210Z,1.20
2022-11-08T18:04:30.285Z,1.15
2022-11-08T18:14:52.564Z,1.40
2022-11-08T18:25:15.456Z,1.65
2022-11-08T18:35:37.995Z,1.60
2022-11-08T18:46:08.317Z,1.38
2022-11-08T18:56:30.179Z,1.50
2022-11-08T19:06:54.745Z,1.50
2022-11-08T19:17:16.797Z,1.40
2022-11-08T19:27:38.548Z,1.60
2022-11-08T19:38:00.314Z,1.80
2022-11-08T19:48:22.399Z,2.10
2022-11-08T19:58:45.169Z,1.58
2022-11-08T20:09:09.228Z,2.08
2022-11-08T20:19:30.983Z,1.83
2022-11-08T20:29:52.868Z,1.40
2022-11-08T20:40:14.960Z,1.70
2022-11-08T20:50:39.085Z,1.65
2022-11-08T21:01:02.546Z,1.52
2022-11-08T21:11:24.319Z,1.52
2022-11-08T21:21:48.716Z,1.70
2022-11-08T21:32:10.491Z,1.42
2022-11-08T21:42:35.385Z,1.50
2022-11-08T21:53:01.917Z,1.60
2022-11-08T22:03:23.721Z,1.60
2022-11-08T22:13:45.483Z,1.65
2022-11-08T22:24:20.303Z,1.55
2022-11-08T22:34:42.232Z,1.40
2022-11-08T22:45:04.330Z,1.70
2022-11-08T22:55:26.267Z,1.40
2022-11-08T23:05:49.906Z,2.08
2022-11-08T23:16:30.036Z,1.58
2022-11-08T23:27:10.405Z,1.60
2022-11-08T23:37:32.152Z,1.60
2022-11-08T23:47:53.925Z,1.50
2022-11-08T23:58:15.828Z,1.48
